Página principal
METAR-TAF:

METAR-TAF

Aeroportos :

Aeroporto Internacional de Pequim-Capital

Pequim, China

latitude: 39-56N, longitude: 116-17E, altura: 55 m

Observação actual do tempo

O boletim foi feito há 21 minutos, às 15:30 UTC
Vento 4 kt de norte
Temperatura 11°C
Humidade 71%
Pressão 1022 hPa
Visibilidade 10 km ou mais
sem nuvens abaixo de 1500 metros e sem cumulonimbus

METAR: ZBAA 231530Z 35002MPS CAVOK 11/06 Q1022 NOSIG

Hora: 23:51 (15:51 UTC)

Previsão

O boletim foi feito há 6 horas e 31 minutos, às 09:20 UTC
Previsão válida de 23 às 12 UTC a 24 às 12 UTC
Vento 8 kt de nor-noroeste
Visibilidade 10 km ou mais
sem nuvens abaixo de 1500 metros e sem cumulonimbus

TAF: ZBAA 230920Z 2312/2412 33004MPS CAVOK TX25/2407Z TN08/2321Z

Observações e previsões do tempo de mais de 4000 aeroportos (mensagens METAR e TAF).

As estações disponíveis são os pontos amarelos e vermelhos sobre o mapa.

Mova o rato sobre o mapa para ver o nome da estação.

Depois clique no ponto para visualizar as observações e previsões meteorológicas.

Para alterar o mapa : clique nos botões verdes com uma cruz preta para aumentar o zoom; no botão verde com uma pitada de zoom; ou nas setas verdes para mapas adjacentes.


METAR-TAF: